Time;durP1;ratioP1;P1;durP2;ratioP2;P2;SDS_P1;SDS_P2;PMS_P1;PMS_P2;Temp;Humidity;BMP_temperature;BMP_pressure;BME280_temperature;BME280_humidity;BME280_pressure;Samples;Min_cycle;Max_cycle;Signal;HPM_P1;HPM_P2
2022/08/24 00:00:56;;;;;;;7.13;3.78;;;21.10;99.90;;;;;;5034300;28;20049;-87
2022/08/24 00:03:25;;;;;;;11.25;3.70;;;21.10;99.90;;;;;;5053888;28;20048;-88
2022/08/24 00:06:01;;;;;;;10.63;4.65;;;21.00;99.90;;;;;;5037924;28;20442;-87
2022/08/24 00:08:30;;;;;;;9.75;2.97;;;21.00;99.90;;;;;;5053869;28;20045;-88
2022/08/24 00:11:01;;;;;;;8.02;3.13;;;20.90;99.90;;;;;;5055209;28;20053;-88
2022/08/24 00:13:29;;;;;;;8.40;4.87;;;20.90;99.90;;;;;;5054246;28;20041;-87
2022/08/24 00:16:03;;;;;;;8.43;3.75;;;20.80;99.90;;;;;;5032375;28;20302;-86
2022/08/24 00:18:32;;;;;;;8.20;3.70;;;20.80;99.90;;;;;;5053996;28;20052;-88
2022/08/24 00:21:00;;;;;;;6.45;3.28;;;20.80;99.90;;;;;;5053399;28;20041;-87
2022/08/24 00:23:28;;;;;;;8.27;4.10;;;20.80;99.90;;;;;;5054009;28;20048;-87
2022/08/24 00:25:57;;;;;;;13.65;4.60;;;20.80;99.90;;;;;;5052892;28;20056;-88
2022/08/24 00:28:24;;;;;;;15.27;5.00;;;20.70;99.90;;;;;;5059787;28;20492;-88
2022/08/24 00:30:52;;;;;;;5.55;3.30;;;20.70;99.90;;;;;;5040366;28;20153;-86
2022/08/24 00:33:21;;;;;;;10.15;4.05;;;20.70;99.90;;;;;;5056287;28;20044;-88
2022/08/24 00:35:49;;;;;;;7.88;3.25;;;20.70;99.90;;;;;;5059540;28;20057;-87
2022/08/24 00:38:22;;;;;;;10.57;3.33;;;20.70;99.90;;;;;;5056257;28;20552;-87
2022/08/24 00:40:54;;;;;;;6.18;3.08;;;20.80;99.90;;;;;;5059447;28;20041;-87
2022/08/24 00:43:25;;;;;;;5.47;3.50;;;20.70;99.90;;;;;;5059074;28;20049;-86
2022/08/24 00:46:09;;;;;;;8.07;3.47;;;20.70;99.90;;;;;;5060355;28;20049;-88
2022/08/24 00:48:41;;;;;;;5.65;2.28;;;20.70;99.90;;;;;;5061322;28;20061;-86
2022/08/24 00:51:32;;;;;;;6.53;2.17;;;20.70;99.90;;;;;;5043735;28;20049;-88
2022/08/24 00:54:06;;;;;;;5.13;2.92;;;20.70;99.90;;;;;;5028708;28;20550;-88
2022/08/24 00:56:47;;;;;;;8.15;3.03;;;20.70;99.90;;;;;;5062261;28;20044;-87
2022/08/24 00:59:31;;;;;;;8.57;5.07;;;20.70;99.90;;;;;;5061983;28;20052;-87
2022/08/24 01:02:16;;;;;;;5.25;3.20;;;20.70;99.90;;;;;;5024429;28;20148;-88
2022/08/24 01:04:55;;;;;;;5.55;2.75;;;20.70;99.90;;;;;;5036863;28;20050;-88
2022/08/24 01:07:26;;;;;;;5.35;3.55;;;20.70;99.90;;;;;;5051998;28;20075;-87
2022/08/24 01:09:58;;;;;;;5.95;2.67;;;20.80;99.90;;;;;;5023012;28;20550;-89
2022/08/24 01:12:28;;;;;;;4.82;2.78;;;20.80;99.90;;;;;;5074303;28;20514;-88
2022/08/24 01:14:57;;;;;;;5.47;2.30;;;20.80;99.90;;;;;;5059582;28;20145;-88
2022/08/24 01:20:14;;;;;;;5.28;2.10;;;20.90;99.90;;;;;;5038420;28;20050;-89
2022/08/24 01:22:51;;;;;;;6.80;2.75;;;20.90;99.90;;;;;;5066755;28;20053;-87
2022/08/24 01:25:21;;;;;;;5.72;2.22;;;20.90;99.90;;;;;;5055249;28;20056;-88
2022/08/24 01:27:53;;;;;;;5.75;2.22;;;20.90;99.90;;;;;;5057048;28;20052;-87
2022/08/24 01:30:22;;;;;;;4.18;1.70;;;20.90;99.90;;;;;;5056200;28;20045;-87
2022/08/24 01:33:07;;;;;;;3.63;2.00;;;20.90;99.90;;;;;;5053807;28;20064;-88
2022/08/24 01:35:36;;;;;;;;;;;20.90;99.90;;;;;;5056286;28;20059;-87
2022/08/24 01:38:07;;;;;;;2.17;1.88;;;20.80;99.90;;;;;;5035430;28;19921;-87
2022/08/24 01:40:41;;;;;;;4.70;1.88;;;20.80;99.90;;;;;;5059412;28;20041;-88
2022/08/24 01:43:10;;;;;;;4.07;1.73;;;20.80;99.90;;;;;;5021372;28;20053;-85
2022/08/24 01:45:38;;;;;;;5.90;2.13;;;20.80;99.90;;;;;;5036068;28;20056;-87
2022/08/24 01:48:06;;;;;;;3.80;2.95;;;20.80;99.90;;;;;;5040256;28;20444;-87
2022/08/24 01:50:34;;;;;;;3.40;1.92;;;20.80;99.90;;;;;;5056550;28;20045;-86
2022/08/24 01:53:04;;;;;;;5.32;1.83;;;20.80;99.90;;;;;;5057093;28;20049;-86
2022/08/24 01:55:34;;;;;;;7.22;3.58;;;20.80;99.90;;;;;;5039955;28;20073;-87
2022/08/24 01:58:03;;;;;;;2.53;2.03;;;20.80;99.90;;;;;;5056449;28;20389;-83
2022/08/24 02:00:33;;;;;;;5.95;2.15;;;20.70;99.90;;;;;;5035345;28;20053;-85
2022/08/24 02:03:02;;;;;;;4.85;1.30;;;20.70;99.90;;;;;;5038432;28;20052;-85
2022/08/24 02:05:31;;;;;;;4.00;2.08;;;20.60;99.90;;;;;;5044498;28;20053;-87
2022/08/24 02:07:58;;;;;;;4.80;1.73;;;20.60;99.90;;;;;;5055342;28;20040;-87
2022/08/24 02:10:27;;;;;;;2.85;1.52;;;20.50;99.90;;;;;;5049241;28;20052;-87
2022/08/24 02:12:57;;;;;;;2.03;1.38;;;20.50;99.90;;;;;;5039395;28;20045;-87
2022/08/24 02:15:38;;;;;;;4.63;1.70;;;20.40;99.90;;;;;;5055067;28;20053;-84
2022/08/24 02:18:12;;;;;;;4.65;2.05;;;20.40;99.90;;;;;;5054747;28;20049;-85
2022/08/24 02:20:43;;;;;;;2.85;1.95;;;20.40;99.90;;;;;;5046252;28;20057;-84
2022/08/24 02:23:12;;;;;;;4.28;1.60;;;20.40;99.90;;;;;;5053037;28;20120;-85
2022/08/24 02:25:41;;;;;;;2.67;1.60;;;20.40;99.90;;;;;;5056609;28;20049;-85
2022/08/24 02:28:09;;;;;;;3.47;1.50;;;20.30;99.90;;;;;;5021078;28;20049;-86
2022/08/24 02:30:38;;;;;;;3.67;1.90;;;20.30;99.90;;;;;;5038943;28;20048;-86
2022/08/24 02:33:07;;;;;;;3.72;2.17;;;20.30;99.90;;;;;;5022150;28;20037;-86
2022/08/24 02:35:35;;;;;;;6.10;1.92;;;20.30;99.90;;;;;;5035009;28;20053;-86
2022/08/24 02:38:02;;;;;;;3.83;2.00;;;20.30;99.90;;;;;;5063946;28;20068;-85
2022/08/24 02:40:32;;;;;;;4.40;1.55;;;20.40;99.90;;;;;;5035889;28;20052;-87
2022/08/24 02:43:00;;;;;;;2.75;1.55;;;20.40;99.90;;;;;;5020979;28;20041;-87
2022/08/24 02:45:28;;;;;;;4.28;1.90;;;20.40;99.90;;;;;;5054101;28;20041;-88
2022/08/24 02:47:57;;;;;;;2.83;1.77;;;20.40;99.90;;;;;;5034580;28;20061;-88
2022/08/24 02:50:26;;;;;;;5.22;2.22;;;20.40;99.90;;;;;;5063273;28;20053;-88
2022/08/24 02:52:54;;;;;;;5.13;1.85;;;20.40;99.90;;;;;;5052116;28;20029;-88
2022/08/24 02:55:23;;;;;;;5.30;1.98;;;20.40;99.90;;;;;;5033571;28;20049;-85
2022/08/24 02:57:52;;;;;;;9.60;2.97;;;20.40;99.90;;;;;;5032330;28;20064;-87
2022/08/24 03:00:22;;;;;;;5.63;2.38;;;20.30;99.90;;;;;;5027377;28;20064;-87
2022/08/24 03:02:52;;;;;;;3.60;2.00;;;20.30;99.90;;;;;;5037330;28;20053;-87
2022/08/24 03:05:21;;;;;;;3.83;2.13;;;20.30;99.90;;;;;;5055426;28;20052;-84
2022/08/24 03:07:49;;;;;;;3.25;2.35;;;19.60;99.90;;;;;;5057281;28;20049;-87
2022/08/24 03:10:20;;;;;;;4.25;2.63;;;20.30;99.90;;;;;;5035716;28;20053;-88
2022/08/24 03:12:48;;;;;;;3.05;2.75;;;20.40;99.90;;;;;;5051831;28;20049;-88
2022/08/24 03:15:21;;;;;;;6.47;2.28;;;20.40;99.90;;;;;;5034751;28;20041;-87
2022/08/24 03:17:50;;;;;;;3.78;2.08;;;20.50;99.90;;;;;;5032103;28;20057;-88
2022/08/24 03:20:21;;;;;;;7.75;2.90;;;20.50;99.90;;;;;;5021032;28;20049;-88
2022/08/24 03:22:51;;;;;;;7.40;2.75;;;20.60;99.90;;;;;;5054353;28;20057;-87
2022/08/24 03:25:20;;;;;;;4.13;2.88;;;20.60;99.90;;;;;;5056729;28;20049;-88
2022/08/24 03:27:48;;;;;;;7.40;2.75;;;20.60;99.90;;;;;;5054024;28;20414;-88
2022/08/24 03:30:17;;;;;;;5.20;2.63;;;20.60;99.90;;;;;;5053585;28;20052;-88
2022/08/24 03:32:46;;;;;;;7.05;2.58;;;20.60;99.90;;;;;;5021133;28;20072;-88
2022/08/24 03:35:15;;;;;;;4.75;3.25;;;20.60;99.90;;;;;;5019508;28;20052;-87
2022/08/24 03:37:43;;;;;;;17.75;3.22;;;20.50;99.90;;;;;;5033401;28;20045;-89
2022/08/24 03:40:14;;;;;;;4.22;2.38;;;20.50;99.90;;;;;;5033825;28;20060;-87
2022/08/24 03:42:53;;;;;;;6.53;2.53;;;20.50;99.90;;;;;;5042031;28;20032;-87
2022/08/24 03:45:22;;;;;;;6.28;3.05;;;20.40;99.90;;;;;;5028603;28;20053;-87
2022/08/24 03:47:50;;;;;;;10.10;3.33;;;20.40;99.90;;;;;;5052260;28;20049;-87
2022/08/24 03:50:19;;;;;;;5.38;2.55;;;20.40;99.90;;;;;;5052973;28;20064;-86
2022/08/24 03:52:47;;;;;;;4.32;2.60;;;20.30;99.90;;;;;;5032922;28;20041;-86
2022/08/24 03:55:17;;;;;;;5.65;2.88;;;20.30;99.90;;;;;;5044091;28;20046;-85
2022/08/24 03:57:46;;;;;;;4.93;2.72;;;20.30;99.90;;;;;;5049070;28;20041;-85
2022/08/24 04:00:15;;;;;;;8.77;3.10;;;20.30;99.90;;;;;;5041241;28;20049;-86
2022/08/24 04:02:49;;;;;;;4.30;2.17;;;20.30;99.90;;;;;;5050678;28;20427;-86
2022/08/24 04:05:20;;;;;;;8.13;4.93;;;20.30;99.90;;;;;;5034799;28;20068;-85
2022/08/24 04:07:48;;;;;;;7.57;3.40;;;20.30;99.90;;;;;;5034274;28;20052;-85
2022/08/24 04:10:16;;;;;;;4.95;3.17;;;20.30;99.90;;;;;;5035899;28;20068;-86
2022/08/24 04:12:44;;;;;;;5.35;3.13;;;20.30;99.90;;;;;;5068795;28;20049;-86
2022/08/24 04:15:13;;;;;;;4.28;2.83;;;20.30;99.90;;;;;;5032030;28;20412;-86
2022/08/24 04:17:41;;;;;;;5.88;3.13;;;20.30;99.90;;;;;;5029222;28;20053;-85
2022/08/24 04:20:10;;;;;;;7.05;3.28;;;20.30;99.90;;;;;;5034603;28;20056;-85
2022/08/24 04:22:40;;;;;;;7.82;3.80;;;20.30;99.90;;;;;;5023871;28;20136;-85
2022/08/24 04:25:09;;;;;;;6.97;2.92;;;20.30;99.90;;;;;;5029917;28;20045;-86
2022/08/24 04:27:40;;;;;;;7.28;3.70;;;20.30;99.90;;;;;;5030521;28;20052;-86
2022/08/24 04:30:09;;;;;;;10.17;3.33;;;20.30;99.90;;;;;;5030058;28;20611;-85
2022/08/24 04:33:05;;;;;;;10.30;4.53;;;20.30;99.90;;;;;;5050097;28;20072;-85
2022/08/24 04:35:40;;;;;;;10.13;2.92;;;20.40;99.90;;;;;;5034799;28;20056;-85
2022/08/24 04:38:08;;;;;;;16.00;4.60;;;20.40;99.90;;;;;;5034401;28;20049;-86
2022/08/24 04:40:41;;;;;;;9.23;3.22;;;20.40;99.90;;;;;;5034469;28;20042;-85
2022/08/24 04:43:15;;;;;;;4.55;3.03;;;20.40;99.90;;;;;;5032042;28;20049;-86
2022/08/24 04:45:47;;;;;;;6.60;3.10;;;20.40;99.90;;;;;;5016430;28;20385;-85
2022/08/24 04:48:19;;;;;;;6.57;2.88;;;20.40;99.90;;;;;;5052994;28;20045;-86
2022/08/24 04:50:48;;;;;;;7.75;3.13;;;20.40;99.90;;;;;;5038995;28;20052;-86
2022/08/24 04:53:16;;;;;;;6.55;3.40;;;20.40;99.90;;;;;;5055020;28;20660;-86
2022/08/24 04:55:49;;;;;;;7.32;3.58;;;20.40;99.90;;;;;;5020183;28;20052;-86
2022/08/24 04:58:18;;;;;;;10.38;2.88;;;20.40;99.90;;;;;;5052935;28;20044;-85
2022/08/24 05:00:46;;;;;;;8.65;2.90;;;20.40;99.90;;;;;;5034688;28;20401;-85
2022/08/24 05:03:15;;;;;;;8.00;3.58;;;20.40;99.90;;;;;;5035295;28;20384;-86
2022/08/24 05:05:48;;;;;;;8.80;3.47;;;20.40;99.90;;;;;;5032096;28;20591;-85
2022/08/24 05:08:18;;;;;;;8.48;3.40;;;20.30;99.90;;;;;;5020229;28;20063;-86
2022/08/24 05:10:47;;;;;;;6.65;2.95;;;20.40;99.90;;;;;;5028978;28;20053;-85
2022/08/24 05:13:15;;;;;;;4.60;2.92;;;20.40;99.90;;;;;;5049529;28;20408;-84
2022/08/24 05:15:47;;;;;;;11.50;5.35;;;20.40;99.90;;;;;;5032276;28;20053;-86
2022/08/24 05:18:16;;;;;;;9.75;3.40;;;20.40;99.90;;;;;;5032124;28;20041;-87
2022/08/24 05:20:46;;;;;;;6.25;3.17;;;20.50;99.90;;;;;;5031639;28;20042;-86
2022/08/24 05:23:15;;;;;;;3.92;2.30;;;20.50;99.90;;;;;;5051379;28;20518;-86
2022/08/24 05:25:42;;;;;;;7.78;3.40;;;20.50;99.90;;;;;;5044288;28;20056;-86
2022/08/24 05:28:12;;;;;;;9.15;3.20;;;20.60;99.90;;;;;;5036879;28;20053;-87
2022/08/24 05:30:39;;;;;;;6.38;3.17;;;20.60;99.90;;;;;;5043489;28;20060;-86
2022/08/24 05:33:10;;;;;;;4.97;2.40;;;20.60;99.90;;;;;;5038078;28;20464;-86
2022/08/24 05:35:42;;;;;;;5.97;2.67;;;20.70;99.90;;;;;;5040984;28;20489;-84
2022/08/24 05:38:18;;;;;;;7.68;2.67;;;20.70;99.90;;;;;;5040915;28;20555;-86
2022/08/24 05:40:46;;;;;;;8.02;3.78;;;20.70;99.90;;;;;;5036294;28;20060;-85
2022/08/24 05:43:14;;;;;;;6.60;2.88;;;20.70;99.90;;;;;;5029746;28;20049;-88
2022/08/24 05:45:43;;;;;;;6.00;3.28;;;20.70;99.90;;;;;;5038048;28;20044;-86
2022/08/24 05:48:11;;;;;;;6.70;3.33;;;20.80;99.90;;;;;;5031990;28;20045;-86
2022/08/24 05:50:57;;;;;;;9.30;2.63;;;20.80;99.90;;;;;;5037107;28;20053;-84
2022/08/24 05:53:30;;;;;;;5.13;2.08;;;20.80;99.90;;;;;;5051537;28;20059;-88
2022/08/24 05:56:05;;;;;;;11.80;2.92;;;20.80;99.90;;;;;;5034184;28;20053;-89
2022/08/24 05:58:35;;;;;;;6.07;2.47;;;20.80;99.90;;;;;;5051676;28;20468;-88
2022/08/24 06:01:19;;;;;;;6.03;3.17;;;20.90;99.90;;;;;;5035090;28;20045;-87
2022/08/24 06:03:49;;;;;;;13.15;3.08;;;20.90;99.90;;;;;;5046693;28;20056;-88
2022/08/24 06:06:19;;;;;;;9.85;3.00;;;20.90;99.90;;;;;;5041574;28;20047;-88
2022/08/24 06:08:49;;;;;;;6.85;2.80;;;20.90;99.90;;;;;;5048649;28;20048;-89
2022/08/24 06:11:28;;;;;;;8.95;3.50;;;20.90;99.90;;;;;;5038542;28;20059;-88
2022/08/24 06:14:08;;;;;;;8.45;2.88;;;20.90;99.90;;;;;;5031340;28;20096;-89
2022/08/24 06:16:48;;;;;;;8.88;3.17;;;20.90;99.90;;;;;;5029817;28;20060;-88
2022/08/24 06:19:18;;;;;;;5.28;2.55;;;20.90;99.90;;;;;;5027667;28;20049;-87
2022/08/24 06:21:50;;;;;;;6.63;2.67;;;21.00;99.90;;;;;;5029152;28;20060;-88
2022/08/24 06:27:22;;;;;;;9.77;2.63;;;21.00;99.90;;;;;;5039754;28;20369;-87
2022/08/24 06:30:02;;;;;;;5.30;2.67;;;21.00;99.90;;;;;;5029398;28;20045;-88
2022/08/24 06:32:51;;;;;;;4.10;1.92;;;20.70;99.90;;;;;;5042520;28;20515;-88
2022/08/24 06:35:28;;;;;;;3.38;2.00;;;20.90;99.90;;;;;;5019735;28;20575;-88
2022/08/24 06:37:57;;;;;;;8.35;3.53;;;21.00;99.90;;;;;;5034446;28;20209;-89
2022/08/24 06:40:26;;;;;;;3.60;2.20;;;21.00;99.90;;;;;;5053352;28;20036;-88
2022/08/24 06:42:54;;;;;;;8.38;3.60;;;21.00;99.90;;;;;;5038371;28;20045;-89
2022/08/24 06:45:43;;;;;;;7.30;2.47;;;21.00;99.90;;;;;;5041680;28;20367;-89
2022/08/24 06:48:13;;;;;;;3.42;2.17;;;21.00;99.90;;;;;;5054396;28;20048;-88
2022/08/24 06:50:41;;;;;;;7.78;2.17;;;21.10;99.90;;;;;;5033084;28;20056;-86
2022/08/24 06:53:13;;;;;;;14.73;2.40;;;21.10;99.90;;;;;;5050221;28;20056;-87
2022/08/24 06:55:50;;;;;;;4.10;2.17;;;21.20;99.90;;;;;;5037939;28;20056;-88
2022/08/24 06:58:19;;;;;;;6.00;3.40;;;21.20;99.90;;;;;;5030103;28;20069;-87
2022/08/24 07:00:47;;;;;;;3.88;1.42;;;21.30;99.90;;;;;;5026670;28;20053;-88
2022/08/24 07:03:17;;;;;;;4.43;2.65;;;21.40;99.90;;;;;;5047321;28;20514;-88
2022/08/24 07:05:56;;;;;;;2.45;1.48;;;21.40;99.90;;;;;;5049126;28;20053;-88
2022/08/24 07:08:41;;;;;;;4.90;1.85;;;21.40;99.90;;;;;;5034970;28;20060;-87
2022/08/24 07:11:16;;;;;;;7.15;2.13;;;21.50;99.90;;;;;;5032624;28;20059;-86
2022/08/24 07:13:46;;;;;;;6.95;1.77;;;21.50;99.90;;;;;;5015160;28;20057;-87
2022/08/24 07:16:16;;;;;;;9.88;2.78;;;21.60;99.90;;;;;;5046878;28;20053;-88
2022/08/24 07:18:47;;;;;;;16.30;3.17;;;21.60;99.90;;;;;;5030362;28;20053;-87
2022/08/24 07:21:20;;;;;;;5.32;1.63;;;21.60;99.90;;;;;;5013862;28;20049;-87
2022/08/24 07:23:54;;;;;;;3.17;1.70;;;21.60;99.90;;;;;;5029383;28;20048;-88
2022/08/24 07:26:24;;;;;;;6.00;1.92;;;21.60;99.90;;;;;;5029503;28;20049;-86
2022/08/24 07:29:00;;;;;;;4.88;2.03;;;21.60;99.90;;;;;;5045962;28;20052;-88
2022/08/24 07:31:36;;;;;;;5.45;1.50;;;21.60;99.90;;;;;;5044403;28;20052;-87
2022/08/24 07:34:24;;;;;;;4.15;1.48;;;21.60;99.90;;;;;;5045543;28;20053;-87
2022/08/24 07:36:52;;;;;;;6.80;1.95;;;21.60;99.90;;;;;;5013143;28;20057;-87
2022/08/24 07:39:20;;;;;;;6.70;2.08;;;21.70;99.90;;;;;;5013251;28;20056;-87
2022/08/24 07:41:48;;;;;;;5.00;1.88;;;21.70;99.90;;;;;;5028927;28;20068;-87
2022/08/24 07:44:37;;;;;;;5.47;2.70;;;21.70;99.90;;;;;;5038103;28;20055;-87
2022/08/24 07:47:05;;;;;;;4.22;2.03;;;21.80;99.90;;;;;;5047156;28;20435;-87
2022/08/24 07:49:53;;;;;;;2.80;1.60;;;21.90;99.90;;;;;;5048591;28;20049;-88
2022/08/24 07:52:24;;;;;;;4.18;2.03;;;22.00;99.90;;;;;;5061812;28;20067;-88
2022/08/24 07:54:51;;;;;;;8.40;2.87;;;22.00;99.90;;;;;;5030122;28;20515;-87
2022/08/24 07:57:19;;;;;;;4.50;2.00;;;22.10;99.90;;;;;;5031006;28;20072;-87
2022/08/24 07:59:47;;;;;;;5.97;2.17;;;22.10;99.90;;;;;;5063939;28;20033;-87
2022/08/24 08:02:15;;;;;;;4.47;2.30;;;22.10;99.90;;;;;;5047729;28;20049;-86
2022/08/24 08:04:48;;;;;;;4.90;1.63;;;22.20;99.90;;;;;;5044952;28;20053;-87
2022/08/24 08:07:17;;;;;;;9.45;2.15;;;22.30;99.90;;;;;;5015379;28;20044;-87
2022/08/24 08:09:48;;;;;;;6.60;2.13;;;22.40;99.90;;;;;;5045760;28;20040;-86
2022/08/24 08:12:18;;;;;;;5.18;2.53;;;22.50;99.90;;;;;;5045648;28;20064;-87
2022/08/24 08:14:56;;;;;;;5.80;1.77;;;22.60;99.90;;;;;;5044501;28;20045;-87
2022/08/24 08:17:24;;;;;;;4.43;1.88;;;22.70;99.90;;;;;;5043231;28;20063;-86
2022/08/24 08:19:53;;;;;;;5.40;1.80;;;21.10;99.90;;;;;;5025711;28;20049;-87
2022/08/24 08:25:37;;;;;;;3.92;1.63;;;22.90;99.90;;;;;;5023403;28;20065;-87
2022/08/24 08:28:12;;;;;;;3.35;1.58;;;23.00;99.90;;;;;;5033236;28;20045;-87
2022/08/24 08:30:54;;;;;;;5.60;1.75;;;23.10;99.90;;;;;;5056508;28;20048;-87
2022/08/24 08:33:23;;;;;;;5.05;1.67;;;23.20;99.90;;;;;;5040534;28;20060;-86
2022/08/24 08:36:01;;;;;;;4.18;1.50;;;23.30;99.90;;;;;;5024681;28;20053;-86
2022/08/24 08:38:29;;;;;;;3.42;2.15;;;23.30;99.90;;;;;;4707993;28;9999766;-88
2022/08/24 08:41:44;;;;;;;5.78;1.67;;;23.40;99.90;;;;;;5045339;28;20049;-87
2022/08/24 08:44:53;;;;;;;4.93;1.33;;;23.50;99.90;;;;;;5036027;28;20060;-87
2022/08/24 08:48:01;;;;;;;3.20;1.67;;;23.50;99.90;;;;;;5057767;28;20065;-86
2022/08/24 08:50:38;;;;;;;3.67;1.20;;;23.50;99.90;;;;;;5068451;28;20049;-87
2022/08/24 08:53:32;;;;;;;5.57;2.88;;;23.50;99.90;;;;;;5057268;28;20053;-88
2022/08/24 08:56:12;;;;;;;3.45;1.80;;;23.50;99.90;;;;;;5036506;28;20052;-88
2022/08/24 08:59:00;;;;;;;6.88;2.45;;;23.50;99.90;;;;;;5046884;28;20631;-87
2022/08/24 09:02:04;;;;;;;6.70;1.45;;;23.50;99.90;;;;;;5061915;28;20049;-88
2022/08/24 09:05:10;;;;;;;5.18;3.33;;;23.50;99.90;;;;;;5029383;28;20072;-88
2022/08/24 09:07:53;;;;;;;3.45;1.50;;;23.50;99.90;;;;;;5026200;28;20049;-87
2022/08/24 09:10:53;;;;;;;6.18;2.17;;;23.60;99.90;;;;;;5045304;28;20049;-88
2022/08/24 09:13:59;;;;;;;9.13;1.70;;;23.60;99.90;;;;;;5015355;28;20400;-86
2022/08/24 09:16:56;;;;;;;2.70;1.70;;;23.70;99.90;;;;;;5044106;28;20049;-88
2022/08/24 09:19:44;;;;;;;4.35;1.40;;;23.80;99.90;;;;;;5062160;28;20243;-88
2022/08/24 09:22:20;;;;;;;3.65;1.63;;;23.80;99.90;;;;;;5060112;28;20068;-88
2022/08/24 09:24:51;;;;;;;2.63;1.55;;;23.90;99.90;;;;;;5044431;28;20037;-87
2022/08/24 09:28:00;;;;;;;1.73;1.20;;;24.00;99.90;;;;;;5047804;28;20049;-89
2022/08/24 09:30:52;;;;;;;5.70;1.50;;;24.10;99.90;;;;;;5061961;28;20048;-88
2022/08/24 09:33:25;;;;;;;1.98;1.23;;;24.20;99.90;;;;;;5046022;28;20048;-87
2022/08/24 09:36:12;;;;;;;5.82;1.70;;;24.20;99.90;;;;;;5045265;28;20964;-88
2022/08/24 09:38:58;;;;;;;1.52;1.17;;;24.30;99.90;;;;;;5060767;28;20053;-87
2022/08/24 09:42:03;;;;;;;2.47;1.73;;;24.40;99.90;;;;;;5031317;28;20056;-87
2022/08/24 09:45:20;;;;;;;3.85;1.33;;;24.50;99.90;;;;;;5053281;28;20053;-87
2022/08/24 09:48:08;;;;;;;4.00;1.20;;;24.60;99.70;;;;;;5034887;28;20060;-87
2022/08/24 09:51:40;;;;;;;2.20;1.00;;;24.90;99.90;;;;;;5053332;28;20060;-87
2022/08/24 09:54:14;;;;;;;3.33;1.67;;;25.10;99.20;;;;;;5037825;28;21206;-89
2022/08/24 09:57:14;;;;;;;1.48;0.93;;;25.30;99.10;;;;;;5047058;28;20047;-89
2022/08/24 10:00:09;;;;;;;6.18;1.50;;;25.50;98.60;;;;;;5047675;28;20056;-88
2022/08/24 10:02:58;;;;;;;3.97;1.40;;;25.60;98.50;;;;;;5064085;28;20061;-88
2022/08/24 10:06:09;;;;;;;3.25;1.40;;;25.50;97.90;;;;;;5049922;28;20207;-90
2022/08/24 10:12:20;;;;;;;4.68;1.95;;;25.50;97.50;;;;;;5049777;28;20049;-87
2022/08/24 10:15:15;;;;;;;8.00;2.10;;;25.70;97.20;;;;;;5025354;28;20045;-88
2022/08/24 10:18:02;;;;;;;1.42;0.70;;;25.60;97.20;;;;;;5047290;28;20061;-87
2022/08/24 10:20:52;;;;;;;2.92;0.90;;;25.50;97.30;;;;;;5035604;28;20041;-88
2022/08/24 10:23:28;;;;;;;3.92;1.42;;;25.50;97.00;;;;;;5033542;28;20041;-88
2022/08/24 10:26:14;;;;;;;6.43;1.30;;;25.40;97.50;;;;;;5043116;28;20056;-89
2022/08/24 10:29:04;;;;;;;1.23;1.13;;;25.40;97.30;;;;;;5059312;28;20049;-87
2022/08/24 10:31:37;;;;;;;2.47;1.13;;;25.20;97.30;;;;;;5040277;28;20044;-89
2022/08/24 10:34:24;;;;;;;1.63;0.88;;;25.20;97.70;;;;;;5029735;28;20045;-90
2022/08/24 10:37:11;;;;;;;1.98;1.05;;;25.20;97.70;;;;;;5046861;28;20060;-90
2022/08/24 10:40:07;;;;;;;3.63;1.20;;;25.50;97.40;;;;;;5046700;28;20519;-90
2022/08/24 10:46:23;;;;;;;5.97;0.80;;;25.90;97.00;;;;;;5059203;28;20049;-88
2022/08/24 10:49:13;;;;;;;13.25;2.10;;;26.10;96.40;;;;;;5052284;28;20041;-88
2022/08/24 10:52:16;;;;;;;4.25;0.90;;;26.30;96.40;;;;;;5047702;28;20046;-89
2022/08/24 10:54:45;;;;;;;2.13;1.00;;;26.50;95.50;;;;;;5027083;28;20071;-89
2022/08/24 10:57:42;;;;;;;2.20;0.90;;;26.50;95.40;;;;;;5030746;28;20877;-87
2022/08/24 11:00:21;;;;;;;1.10;0.73;;;26.80;95.30;;;;;;5038409;28;20049;-88
2022/08/24 11:03:09;;;;;;;3.30;1.10;;;26.80;94.80;;;;;;5025169;28;20045;-90
2022/08/24 11:05:44;;;;;;;1.35;0.82;;;26.80;94.60;;;;;;5035001;28;20050;-89
2022/08/24 11:08:25;;;;;;;2.55;0.80;;;26.80;94.40;;;;;;5035509;28;20049;-89
2022/08/24 11:11:10;;;;;;;2.33;1.15;;;26.60;94.70;;;;;;5042611;28;20045;-90
2022/08/24 11:13:51;;;;;;;3.90;1.15;;;26.60;94.70;;;;;;5061487;28;20431;-89
2022/08/24 11:16:39;;;;;;;4.32;1.45;;;26.60;94.70;;;;;;5059154;28;20059;-90
2022/08/24 11:19:27;;;;;;;3.80;1.73;;;26.50;94.70;;;;;;5044424;28;20489;-90
2022/08/24 11:22:03;;;;;;;7.30;3.00;;;26.70;95.00;;;;;;5028716;28;20065;-90
2022/08/24 11:24:44;;;;;;;8.75;2.08;;;26.90;94.40;;;;;;5029804;28;20044;-87
2022/08/24 11:27:15;;;;;;;9.48;1.50;;;27.10;93.30;;;;;;5045146;28;20048;-88
2022/08/24 11:29:49;;;;;;;2.58;1.10;;;27.30;93.20;;;;;;5044135;28;20052;-88
2022/08/24 11:32:32;;;;;;;7.35;1.25;;;27.50;92.50;;;;;;5044576;28;20061;-90
2022/08/24 11:35:27;;;;;;;3.00;1.20;;;27.60;92.70;;;;;;5043764;28;20053;-89
2022/08/24 11:38:15;;;;;;;1.98;1.00;;;27.70;92.10;;;;;;5022785;28;20440;-88
2022/08/24 11:41:06;;;;;;;6.95;1.55;;;27.70;91.90;;;;;;5026902;28;20044;-89
2022/08/24 11:44:04;;;;;;;3.85;1.27;;;27.70;92.10;;;;;;5045027;28;20431;-88
2022/08/24 11:46:45;;;;;;;2.53;1.30;;;27.90;92.30;;;;;;5042791;28;20056;-89
2022/08/24 11:49:28;;;;;;;6.70;1.45;;;28.10;91.90;;;;;;5058017;28;20053;-87
2022/08/24 11:52:09;;;;;;;5.57;1.70;;;28.20;91.50;;;;;;5042174;28;20052;-88
2022/08/24 11:54:54;;;;;;;3.28;1.20;;;28.30;91.40;;;;;;5041459;28;20041;-88
2022/08/24 11:57:40;;;;;;;1.90;1.30;;;28.30;91.00;;;;;;5042300;28;20064;-87
2022/08/24 12:00:21;;;;;;;2.55;0.80;;;28.40;90.80;;;;;;4815777;28;10000867;-88
2022/08/24 12:03:11;;;;;;;3.50;0.82;;;28.40;90.40;;;;;;5042530;28;20303;-88
2022/08/24 12:05:48;;;;;;;2.47;1.00;;;28.40;90.30;;;;;;5045210;28;20041;-88
2022/08/24 12:08:45;;;;;;;4.88;1.05;;;28.40;90.20;;;;;;5055565;28;20071;-88
2022/08/24 12:11:34;;;;;;;3.20;1.52;;;28.30;90.40;;;;;;5043075;28;20721;-89
2022/08/24 12:14:05;;;;;;;4.15;1.20;;;28.30;90.60;;;;;;5041491;28;20045;-88
2022/08/24 12:16:57;;;;;;;3.92;1.20;;;28.10;90.60;;;;;;5041184;28;20053;-87
2022/08/24 12:19:28;;;;;;;9.88;1.83;;;28.00;90.80;;;;;;5025519;28;20053;-89
2022/08/24 12:22:05;;;;;;;2.38;1.02;;;28.00;91.10;;;;;;5058181;28;20053;-89
2022/08/24 12:24:59;;;;;;;3.08;1.42;;;28.10;90.90;;;;;;5041953;28;20041;-88
2022/08/24 12:27:36;;;;;;;3.47;1.40;;;28.20;90.60;;;;;;5042847;28;20045;-88
2022/08/24 12:30:13;;;;;;;3.38;0.68;;;28.40;90.40;;;;;;5028465;28;20056;-88
2022/08/24 12:32:52;;;;;;;1.92;0.60;;;28.70;90.10;;;;;;5034269;28;20049;-89
2022/08/24 12:35:33;;;;;;;1.00;0.50;;;28.90;89.10;;;;;;5054326;28;20045;-89
2022/08/24 12:38:13;;;;;;;;;;;29.10;88.90;;;;;;5028810;28;20048;-90
2022/08/24 12:40:44;;;;;;;5.72;1.17;;;29.20;86.70;;;;;;5046508;28;19929;-89
2022/08/24 12:43:37;;;;;;;1.58;0.80;;;29.30;88.80;;;;;;5038840;28;20063;-90
2022/08/24 12:46:05;;;;;;;6.28;1.25;;;29.30;86.70;;;;;;5049306;28;20048;-88
2022/08/24 12:48:47;;;;;;;3.03;0.93;;;29.30;87.10;;;;;;5039168;28;20049;-89
2022/08/24 12:51:40;;;;;;;3.85;0.88;;;29.40;86.20;;;;;;5040458;28;20056;-89
2022/08/24 12:54:32;;;;;;;1.25;0.98;;;29.50;85.90;;;;;;5059735;28;20037;-88
2022/08/24 12:57:17;;;;;;;5.70;1.15;;;29.50;86.40;;;;;;5048100;28;20234;-91
2022/08/24 12:59:53;;;;;;;1.60;0.90;;;29.70;86.20;;;;;;5048462;28;20041;-90
2022/08/24 13:02:21;;;;;;;6.05;0.70;;;29.80;84.80;;;;;;5047366;28;20045;-90
2022/08/24 13:04:49;;;;;;;5.35;1.35;;;29.80;85.60;;;;;;5013958;28;20052;-91
2022/08/24 13:07:17;;;;;;;0.93;0.60;;;29.90;85.70;;;;;;5029671;28;20041;-89
2022/08/24 13:09:48;;;;;;;1.67;0.90;;;30.00;85.40;;;;;;5028484;28;20053;-89
2022/08/24 13:12:37;;;;;;;1.58;0.80;;;30.10;85.40;;;;;;5045800;28;20412;-87
2022/08/24 13:15:24;;;;;;;2.63;1.17;;;30.10;84.80;;;;;;5044718;28;20074;-90
2022/08/24 13:18:07;;;;;;;2.28;1.05;;;30.40;83.10;;;;;;5028755;28;20053;-88
2022/08/24 13:20:42;;;;;;;2.92;0.75;;;30.50;82.80;;;;;;5029697;28;20045;-89
2022/08/24 13:23:14;;;;;;;2.78;1.42;;;30.60;83.50;;;;;;5029760;28;20064;-87
2022/08/24 13:25:57;;;;;;;3.67;0.90;;;30.60;83.20;;;;;;5044544;28;20044;-87
2022/08/24 13:28:40;;;;;;;2.03;0.80;;;30.70;83.60;;;;;;5028541;28;20048;-88
2022/08/24 13:31:19;;;;;;;3.95;0.70;;;30.70;83.30;;;;;;5046817;28;20049;-88
2022/08/24 13:34:01;;;;;;;3.50;1.00;;;30.70;82.60;;;;;;5048324;28;20053;-88
2022/08/24 13:37:13;;;;;;;1.65;0.90;;;30.70;82.30;;;;;;5048156;28;20036;-90
2022/08/24 13:40:09;;;;;;;1.33;0.75;;;30.80;81.50;;;;;;5055078;28;20045;-88
2022/08/24 13:42:51;;;;;;;1.67;1.10;;;30.60;82.30;;;;;;5054914;28;20100;-89
2022/08/24 13:45:42;;;;;;;1.83;0.90;;;30.20;83.10;;;;;;5070981;28;20056;-88
2022/08/24 13:48:19;;;;;;;1.60;0.93;;;30.20;83.50;;;;;;5053724;28;20049;-88
2022/08/24 13:50:58;;;;;;;2.10;1.52;;;30.60;84.00;;;;;;5072582;28;20053;-89